Callison, South Carolina
Current Conditions -  °F | °C
As of 4:56 PM on Tuesday 21 Oct 2014 (Local Time) from KGRD Reporting Station
Clear Clear  
Wind Chill: 74°   Ceiling: Unl
Heat Index: 74°   Visibility: 10mi
Dew Point: 49°   Wind: 9mph
Humidity: 41%   Direction: 270°W
Pressure: 29.89"   Gusts: NA
Location:  34.036°N, 82.2186°W
Report Text: KGRD 212056Z AUTO 27008KT 10SM CLR 23/09 A2989 RMK AO2 SLP117 T02330094 56010
Loading
Personal Weather Stations






























Interactive Weather Map
Tropical Storm Tracking
New forecast layout! Learn more

10-Day Weather Forecast

Advertisements
Track Severe Weather on mobile